Time;durP1;ratioP1;P1;durP2;ratioP2;P2;SDS_P1;SDS_P2;PMS_P1;PMS_P2;Temp;Humidity;BMP_temperature;BMP_pressure;BME280_temperature;BME280_humidity;BME280_pressure;Samples;Min_cycle;Max_cycle;Signal;HPM_P1;HPM_P2
2022/12/26 00:01:46;;;;;;;;;;;18.50;65.80;;;;;;4457406;32;20052;-74
2022/12/26 00:04:12;;;;;;;;;;;18.40;65.70;;;;;;4458854;32;19994;-74
2022/12/26 00:06:38;;;;;;;;;;;18.40;65.80;;;;;;4458800;32;19993;-74
2022/12/26 00:09:06;;;;;;;;;;;18.40;65.80;;;;;;4459570;32;19966;-74
2022/12/26 00:11:32;;;;;;;;;;;18.40;65.80;;;;;;4455684;32;19990;-74
2022/12/26 00:14:00;;;;;;;;;;;18.40;65.90;;;;;;4460389;32;20104;-73
2022/12/26 00:16:26;;;;;;;;;;;18.40;65.90;;;;;;4462833;32;20574;-74
2022/12/26 00:18:52;;;;;;;;;;;18.40;65.90;;;;;;4453553;32;20032;-74
2022/12/26 00:21:18;;;;;;;;;;;18.40;65.90;;;;;;4455515;32;20054;-74
2022/12/26 00:23:44;;;;;;;;;;;18.30;65.90;;;;;;4454025;32;19962;-74
2022/12/26 00:26:14;;;;;;;;;;;18.30;65.90;;;;;;4453927;32;19994;-74
2022/12/26 00:28:40;;;;;;;;;;;18.30;65.90;;;;;;4455045;32;19998;-74
2022/12/26 00:31:07;;;;;;;;;;;18.30;66.00;;;;;;4453054;32;20017;-74
2022/12/26 00:33:34;;;;;;;;;;;18.30;65.90;;;;;;4456146;32;20422;-74
2022/12/26 00:36:11;;;;;;;;;;;18.30;66.90;;;;;;4453404;32;20208;-74
2022/12/26 00:38:38;;;;;;;;;;;18.30;66.00;;;;;;4456129;32;19997;-74
2022/12/26 00:41:04;;;;;;;;;;;18.20;66.00;;;;;;4453321;32;19971;-73
2022/12/26 00:43:32;;;;;;;;;;;18.20;65.90;;;;;;4450040;32;19970;-74
2022/12/26 00:45:58;;;;;;;;;;;18.20;66.00;;;;;;4460994;32;19974;-74
2022/12/26 00:48:23;;;;;;;;;;;18.20;66.00;;;;;;4454525;32;19972;-74
2022/12/26 00:50:49;;;;;;;;;;;18.20;66.00;;;;;;4454571;32;20394;-74
2022/12/26 00:53:15;;;;;;;;;;;18.20;66.10;;;;;;4454780;32;19970;-74
2022/12/26 00:55:41;;;;;;;;;;;18.20;66.00;;;;;;4465525;32;19978;-73
2022/12/26 00:58:07;;;;;;;;;;;18.20;66.10;;;;;;4465477;32;19970;-74
2022/12/26 01:00:35;;;;;;;;;;;18.20;66.00;;;;;;4465304;32;20060;-74
2022/12/26 01:03:01;;;;;;;;;;;18.20;66.00;;;;;;4465159;32;20495;-74
2022/12/26 01:05:27;;;;;;;;;;;18.20;66.10;;;;;;4465722;32;20404;-74
2022/12/26 01:07:54;;;;;;;;;;;18.20;66.10;;;;;;4465362;32;19974;-74
2022/12/26 01:10:19;;;;;;;;;;;18.10;66.00;;;;;;4465676;32;19980;-74
2022/12/26 01:12:45;;;;;;;;;;;18.10;66.10;;;;;;4465569;32;20316;-74
2022/12/26 01:15:12;;;;;;;;;;;18.10;66.10;;;;;;4465316;32;20008;-73
2022/12/26 01:17:37;;;;;;;;;;;18.10;66.10;;;;;;4465466;32;20392;-74
2022/12/26 01:20:03;;;;;;;;;;;18.10;66.10;;;;;;4465133;32;20070;-74
2022/12/26 01:22:29;;;;;;;;;;;18.10;66.10;;;;;;4465579;32;20380;-74
2022/12/26 01:24:55;;;;;;;;;;;18.10;66.10;;;;;;4463971;32;19958;-74
2022/12/26 01:27:23;;;;;;;;;;;18.10;66.10;;;;;;4463110;32;20335;-74
2022/12/26 01:29:52;;;;;;;;;;;18.00;66.10;;;;;;4463029;32;19982;-74
2022/12/26 01:32:18;;;;;;;;;;;18.00;66.10;;;;;;4462441;32;19986;-74
2022/12/26 01:34:43;;;;;;;;;;;18.00;66.10;;;;;;4462908;32;19970;-74
2022/12/26 01:37:11;;;;;;;;;;;18.00;66.10;;;;;;4462698;32;19977;-74
2022/12/26 01:39:37;;;;;;;;;;;18.00;66.20;;;;;;4462918;32;20021;-74
2022/12/26 01:42:17;;;;;;;;;;;18.00;66.10;;;;;;4462698;32;20025;-74
2022/12/26 01:45:01;;;;;;;;;;;18.00;66.10;;;;;;4462793;32;20116;-74
2022/12/26 01:47:38;;;;;;;;;;;18.00;66.10;;;;;;4462560;32;20027;-74
2022/12/26 01:50:05;;;;;;;;;;;18.00;66.10;;;;;;4462734;32;20024;-74
2022/12/26 01:52:34;;;;;;;;;;;18.00;66.20;;;;;;4462523;32;20116;-73
2022/12/26 01:55:03;;;;;;;;;;;18.00;66.10;;;;;;4462833;32;20012;-73
2022/12/26 01:57:31;;;;;;;;;;;18.00;66.20;;;;;;4462636;32;19979;-73
2022/12/26 01:59:58;;;;;;;;;;;17.90;66.10;;;;;;4462119;32;20018;-73
2022/12/26 02:05:32;;;;;;;;;;;17.90;66.10;;;;;;4462380;32;20060;-73
2022/12/26 02:05:33;;;;;;;;;;;17.90;66.10;;;;;;4462524;32;19974;-73
2022/12/26 02:08:19;;;;;;;;;;;17.90;66.10;;;;;;4462251;32;19988;-73
2022/12/26 02:10:54;;;;;;;;;;;17.90;66.10;;;;;;4462236;32;20396;-73
2022/12/26 02:13:20;;;;;;;;;;;17.90;66.10;;;;;;4462209;32;19984;-73
2022/12/26 02:15:47;;;;;;;;;;;17.90;66.10;;;;;;4462210;32;20022;-73
2022/12/26 02:18:12;;;;;;;;;;;17.90;66.10;;;;;;4462141;32;20398;-73
2022/12/26 02:21:08;;;;;;;;;;;17.90;66.10;;;;;;4462417;32;19989;-73
2022/12/26 02:23:43;;;;;;;;;;;17.90;66.10;;;;;;4419544;32;19990;-73
2022/12/26 02:26:18;;;;;;;;;;;17.90;66.10;;;;;;4462349;32;19982;-73
2022/12/26 02:28:58;;;;;;;;;;;17.90;66.10;;;;;;4461714;32;19985;-73
2022/12/26 02:31:24;;;;;;;;;;;17.90;66.10;;;;;;4460479;32;19988;-73
2022/12/26 02:33:53;;;;;;;;;;;17.90;66.10;;;;;;4461676;32;19971;-73
2022/12/26 02:36:18;;;;;;;;;;;17.80;66.00;;;;;;4461755;32;20481;-73
2022/12/26 02:38:53;;;;;;;;;;;17.80;66.10;;;;;;4461866;32;20168;-73
2022/12/26 02:41:19;;;;;;;;;;;17.80;66.10;;;;;;4461800;32;19994;-74
2022/12/26 02:43:54;;;;;;;;;;;17.80;66.10;;;;;;4461812;32;19981;-73
2022/12/26 02:49:14;;;;;;;;;;;17.80;66.10;;;;;;4461971;32;19990;-73
2022/12/26 03:14:58;;;;;;;;;;;17.80;66.10;;;;;;4461643;32;20665;-73
2022/12/26 03:17:25;;;;;;;;;;;17.70;66.00;;;;;;4461229;32;20322;-74
2022/12/26 03:19:59;;;;;;;;;;;17.70;66.00;;;;;;4461135;32;19997;-74
2022/12/26 03:22:43;;;;;;;;;;;17.70;66.10;;;;;;4461290;32;20104;-73
2022/12/26 03:27:57;;;;;;;;;;;17.70;66.00;;;;;;4461557;32;20032;-73
2022/12/26 03:34:16;;;;;;;;;;;17.70;66.10;;;;;;4461062;32;20025;-73
2022/12/26 03:35:56;;;;;;;;;;;17.70;66.00;;;;;;4460886;32;20449;-73
2022/12/26 03:38:25;;;;;;;;;;;17.70;66.00;;;;;;4461142;32;20398;-73
2022/12/26 04:20:49;;;;;;;;;;;17.60;66.10;;;;;;4454985;32;20029;-74
2022/12/26 04:46:01;;;;;;;;;;;17.50;66.10;;;;;;4460567;32;20335;-73
2022/12/26 04:51:11;;;;;;;;;;;17.50;66.10;;;;;;4460586;32;20096;-73
2022/12/26 04:53:37;;;;;;;;;;;17.50;66.10;;;;;;4460603;32;20016;-73
2022/12/26 04:56:03;;;;;;;;;;;17.50;66.10;;;;;;4460390;32;19966;-74
2022/12/26 04:58:29;;;;;;;;;;;17.50;66.10;;;;;;4460496;32;19966;-73
2022/12/26 05:11:53;;;;;;;;;;;17.50;66.10;;;;;;4463177;32;20443;-73
2022/12/26 05:14:20;;;;;;;;;;;17.50;66.10;;;;;;4463430;32;19966;-73
2022/12/26 05:30:28;;;;;;;;;;;17.40;66.00;;;;;;4462982;32;19982;-73
2022/12/26 05:35:53;;;;;;;;;;;17.40;66.00;;;;;;4462946;32;19978;-73
2022/12/26 05:38:18;;;;;;;;;;;17.40;66.10;;;;;;4462746;32;19966;-73
2022/12/26 05:40:44;;;;;;;;;;;17.40;66.00;;;;;;4458155;32;19982;-74
2022/12/26 05:43:10;;;;;;;;;;;17.40;66.00;;;;;;4462742;32;19970;-73
2022/12/26 05:45:44;;;;;;;;;;;17.40;66.00;;;;;;4462822;32;19978;-73
2022/12/26 05:48:09;;;;;;;;;;;17.40;66.10;;;;;;4462617;32;20045;-73
2022/12/26 05:50:35;;;;;;;;;;;17.40;66.10;;;;;;4462901;32;19975;-73
2022/12/26 05:53:02;;;;;;;;;;;17.30;66.00;;;;;;4448490;32;20482;-73
2022/12/26 05:55:28;;;;;;;;;;;17.30;66.00;;;;;;4462815;32;20064;-73
2022/12/26 05:57:54;;;;;;;;;;;17.40;66.10;;;;;;4462505;32;19982;-73
2022/12/26 06:00:20;;;;;;;;;;;17.30;66.00;;;;;;4462664;32;20427;-73
2022/12/26 06:02:46;;;;;;;;;;;17.30;66.00;;;;;;4448319;32;20103;-74
2022/12/26 06:05:13;;;;;;;;;;;17.40;66.10;;;;;;4462462;32;19983;-73
2022/12/26 06:07:38;;;;;;;;;;;17.30;66.00;;;;;;4462536;32;19985;-74
2022/12/26 06:10:05;;;;;;;;;;;17.30;66.00;;;;;;4462275;32;20048;-74
2022/12/26 06:12:32;;;;;;;;;;;17.30;66.10;;;;;;4462299;32;19983;-73
2022/12/26 06:15:01;;;;;;;;;;;17.40;66.10;;;;;;4462200;32;20108;-73
2022/12/26 06:17:27;;;;;;;;;;;17.30;65.90;;;;;;4462452;32;20038;-73
2022/12/26 06:19:54;;;;;;;;;;;17.40;66.00;;;;;;4462225;32;20021;-73
2022/12/26 06:22:19;;;;;;;;;;;17.40;65.90;;;;;;4462443;32;20104;-73
2022/12/26 06:24:45;;;;;;;;;;;17.40;65.90;;;;;;4462311;32;20415;-73
2022/12/26 06:27:11;;;;;;;;;;;17.40;65.80;;;;;;4462110;32;19966;-73
2022/12/26 06:29:37;;;;;;;;;;;17.40;65.70;;;;;;4462323;32;20016;-73
2022/12/26 06:32:03;;;;;;;;;;;17.40;65.80;;;;;;4461849;32;20386;-74
2022/12/26 06:34:49;;;;;;;;;;;17.40;65.70;;;;;;4450397;32;20520;-73
2022/12/26 06:37:34;;;;;;;;;;;17.40;65.70;;;;;;4450355;32;19978;-73
2022/12/26 06:40:20;;;;;;;;;;;17.40;65.70;;;;;;4450409;32;19982;-73
2022/12/26 06:42:45;;;;;;;;;;;17.40;65.70;;;;;;4461829;32;20120;-74
2022/12/26 06:45:11;;;;;;;;;;;17.40;66.50;;;;;;4461987;32;19974;-73
2022/12/26 06:47:37;;;;;;;;;;;17.50;65.60;;;;;;4461763;32;20002;-73
2022/12/26 06:50:03;;;;;;;;;;;17.50;65.60;;;;;;4461942;32;19988;-73
2022/12/26 06:52:29;;;;;;;;;;;17.50;65.60;;;;;;4461903;32;19970;-74
2022/12/26 06:54:59;;;;;;;;;;;17.50;65.60;;;;;;4461436;32;20398;-73
2022/12/26 06:57:25;;;;;;;;;;;17.50;65.60;;;;;;4461820;32;20024;-73
2022/12/26 06:59:50;;;;;;;;;;;17.50;65.50;;;;;;4447269;32;20002;-74
2022/12/26 07:02:16;;;;;;;;;;;17.50;65.50;;;;;;4461793;32;20333;-73
2022/12/26 07:04:42;;;;;;;;;;;17.50;65.50;;;;;;4461626;32;19981;-73
2022/12/26 07:07:08;;;;;;;;;;;17.50;65.50;;;;;;4461795;32;19966;-73
2022/12/26 07:09:33;;;;;;;;;;;17.50;65.50;;;;;;4461732;32;19958;-73
2022/12/26 07:12:01;;;;;;;;;;;17.50;65.40;;;;;;4461271;32;19988;-74
2022/12/26 07:14:27;;;;;;;;;;;17.50;65.40;;;;;;4461481;32;20072;-73
2022/12/26 07:16:55;;;;;;;;;;;17.50;65.40;;;;;;4447082;32;19989;-74
2022/12/26 07:19:21;;;;;;;;;;;17.50;65.40;;;;;;4461654;32;20300;-73
2022/12/26 07:21:47;;;;;;;;;;;17.50;65.30;;;;;;4461647;32;20015;-73
2022/12/26 07:24:15;;;;;;;;;;;17.50;65.40;;;;;;4460838;32;20320;-73
2022/12/26 07:26:41;;;;;;;;;;;17.50;65.30;;;;;;4461427;32;19987;-74
2022/12/26 07:29:08;;;;;;;;;;;17.50;65.30;;;;;;4461921;32;19962;-74
2022/12/26 07:31:34;;;;;;;;;;;17.50;65.30;;;;;;4461295;32;19985;-73
2022/12/26 07:34:00;;;;;;;;;;;17.50;65.30;;;;;;4460926;32;19974;-74
2022/12/26 07:36:26;;;;;;;;;;;17.50;65.20;;;;;;4461464;32;20101;-73
2022/12/26 07:38:52;;;;;;;;;;;17.50;65.30;;;;;;4461092;32;20172;-73
2022/12/26 07:44:04;;;;;;;;;;;17.50;65.20;;;;;;4461095;32;20406;-74
2022/12/26 07:46:30;;;;;;;;;;;17.50;65.30;;;;;;4460851;32;20024;-73
2022/12/26 07:48:57;;;;;;;;;;;17.50;65.30;;;;;;4461121;32;19985;-74
2022/12/26 07:51:23;;;;;;;;;;;17.50;65.20;;;;;;4461307;32;19974;-73
2022/12/26 07:53:48;;;;;;;;;;;17.50;65.20;;;;;;4461176;32;19962;-73
2022/12/26 07:56:15;;;;;;;;;;;17.50;65.20;;;;;;4460795;32;20428;-73
2022/12/26 07:58:40;;;;;;;;;;;17.50;65.20;;;;;;4461022;32;19966;-73
2022/12/26 08:01:07;;;;;;;;;;;17.50;65.20;;;;;;4460904;32;20048;-73
2022/12/26 08:03:33;;;;;;;;;;;17.50;65.30;;;;;;4460537;32;20115;-74
2022/12/26 08:05:58;;;;;;;;;;;17.50;65.20;;;;;;4460850;32;19980;-73
2022/12/26 08:08:24;;;;;;;;;;;17.50;65.20;;;;;;4460779;32;19966;-73
2022/12/26 08:11:13;;;;;;;;;;;17.50;65.20;;;;;;4449273;32;20115;-73
2022/12/26 08:13:59;;;;;;;;;;;17.50;65.20;;;;;;4449113;32;19994;-74
2022/12/26 08:16:25;;;;;;;;;;;17.50;65.20;;;;;;4460825;32;20442;-74
2022/12/26 08:18:50;;;;;;;;;;;17.50;65.20;;;;;;4460807;32;20423;-74
2022/12/26 08:21:36;;;;;;;;;;;17.50;65.20;;;;;;4449111;32;20059;-74
2022/12/26 08:24:23;;;;;;;;;;;17.50;65.20;;;;;;4438690;32;19978;-73
2022/12/26 08:26:48;;;;;;;;;;;17.50;65.20;;;;;;4460606;32;20044;-72
2022/12/26 08:29:14;;;;;;;;;;;17.50;65.20;;;;;;4460818;32;19977;-76
2022/12/26 08:31:40;;;;;;;;;;;17.50;65.50;;;;;;4460629;32;20044;-77
2022/12/26 08:34:06;;;;;;;;;;;17.50;65.70;;;;;;4460363;32;19985;-76
2022/12/26 08:36:32;;;;;;;;;;;17.50;66.00;;;;;;4463769;32;19982;-76
2022/12/26 08:38:58;;;;;;;;;;;17.50;66.20;;;;;;4463755;32;20028;-76
2022/12/26 08:41:23;;;;;;;;;;;17.60;65.70;;;;;;4463654;32;20370;-76
2022/12/26 08:43:50;;;;;;;;;;;17.70;65.70;;;;;;4463855;32;19985;-79
2022/12/26 08:46:16;;;;;;;;;;;17.80;65.30;;;;;;4463309;32;19993;-75
2022/12/26 08:48:42;;;;;;;;;;;17.90;65.00;;;;;;4463677;32;20131;-76
2022/12/26 08:51:15;;;;;;;;;;;18.00;64.60;;;;;;4463758;32;20034;-76
2022/12/26 08:53:41;;;;;;;;;;;18.20;64.30;;;;;;4463635;32;20029;-76
2022/12/26 08:56:07;;;;;;;;;;;18.40;63.90;;;;;;4463355;32;20400;-75
2022/12/26 08:58:34;;;;;;;;;;;18.60;63.50;;;;;;4463593;32;19989;-75
2022/12/26 09:01:09;;;;;;;;;;;18.70;63.00;;;;;;4463380;32;20392;-75
2022/12/26 09:03:35;;;;;;;;;;;18.90;62.70;;;;;;4463446;32;20411;-75
2022/12/26 09:06:04;;;;;;;;;;;19.00;62.30;;;;;;4463450;32;20506;-76
2022/12/26 09:08:30;;;;;;;;;;;19.20;62.00;;;;;;4462161;32;20331;-75
2022/12/26 09:11:03;;;;;;;;;;;19.40;61.70;;;;;;4460661;32;19997;-75
2022/12/26 09:13:29;;;;;;;;;;;19.50;61.40;;;;;;4459183;32;20430;-75
2022/12/26 09:16:01;;;;;;;;;;;19.60;61.10;;;;;;4461480;32;19988;-76
2022/12/26 09:18:28;;;;;;;;;;;19.60;61.00;;;;;;4460583;32;19984;-76
2022/12/26 09:20:53;;;;;;;;;;;19.70;60.80;;;;;;4461889;32;20392;-76
2022/12/26 09:23:19;;;;;;;;;;;19.70;60.80;;;;;;4461568;32;19981;-76
2022/12/26 09:25:46;;;;;;;;;;;19.70;60.70;;;;;;4462340;32;19978;-76
2022/12/26 09:28:11;;;;;;;;;;;19.80;60.70;;;;;;4458675;32;19985;-77
2022/12/26 09:30:37;;;;;;;;;;;19.80;60.70;;;;;;4454787;32;19971;-77
2022/12/26 09:33:06;;;;;;;;;;;19.80;60.70;;;;;;4457587;32;20040;-75
2022/12/26 09:35:32;;;;;;;;;;;19.80;60.60;;;;;;4455891;32;20112;-77
2022/12/26 09:37:58;;;;;;;;;;;19.80;61.40;;;;;;4457725;32;20018;-76
2022/12/26 09:40:26;;;;;;;;;;;19.80;60.70;;;;;;4462901;32;19971;-77
2022/12/26 09:43:15;;;;;;;;;;;19.80;60.70;;;;;;4462622;32;19990;-76
2022/12/26 09:45:41;;;;;;;;;;;19.80;60.80;;;;;;4456023;32;19990;-76
2022/12/26 09:48:18;;;;;;;;;;;19.80;60.70;;;;;;4461888;32;20055;-76
2022/12/26 09:50:47;;;;;;;;;;;19.80;60.80;;;;;;4462503;32;19970;-77
2022/12/26 09:53:16;;;;;;;;;;;19.80;60.80;;;;;;4461714;32;19998;-76
2022/12/26 09:55:50;;;;;;;;;;;19.80;60.80;;;;;;4461188;32;19989;-76
2022/12/26 09:58:30;;;;;;;;;;;19.90;60.90;;;;;;4459251;32;20119;-76
2022/12/26 10:01:07;;;;;;;;;;;19.90;60.90;;;;;;4461415;32;20399;-76
2022/12/26 10:03:40;;;;;;;;;;;19.90;60.90;;;;;;4461188;32;20093;-76
2022/12/26 10:06:13;;;;;;;;;;;19.90;60.80;;;;;;4461267;32;20400;-76
2022/12/26 10:08:45;;;;;;;;;;;19.90;60.80;;;;;;4445314;32;19992;-76
2022/12/26 10:11:34;;;;;;;;;;;19.90;60.80;;;;;;4446357;32;19989;-77
2022/12/26 10:14:23;;;;;;;;;;;19.80;60.70;;;;;;4460109;32;19993;-77
2022/12/26 10:16:53;;;;;;;;;;;19.80;60.70;;;;;;4424994;32;19982;-77
2022/12/26 10:19:29;;;;;;;;;;;19.80;60.60;;;;;;4460962;32;19989;-76
2022/12/26 10:22:07;;;;;;;;;;;19.80;60.60;;;;;;4459984;32;20447;-76
2022/12/26 10:24:34;;;;;;;;;;;19.80;60.50;;;;;;4461457;32;20056;-76
2022/12/26 10:27:08;;;;;;;;;;;19.80;60.50;;;;;;4459826;32;19998;-76
2022/12/26 10:29:57;;;;;;;;;;;19.80;60.40;;;;;;4460866;32;19985;-75
2022/12/26 10:32:32;;;;;;;;;;;19.80;60.40;;;;;;4440439;32;20120;-76
2022/12/26 10:34:58;;;;;;;;;;;19.90;60.50;;;;;;4460047;32;19974;-75
2022/12/26 10:37:27;;;;;;;;;;;19.90;60.50;;;;;;4459667;32;20052;-76
2022/12/26 10:40:02;;;;;;;;;;;19.80;60.40;;;;;;4460056;32;20404;-76
2022/12/26 10:42:40;;;;;;;;;;;19.80;60.30;;;;;;4459942;32;19992;-76
2022/12/26 10:45:17;;;;;;;;;;;19.80;60.20;;;;;;4459503;32;19994;-75
2022/12/26 10:47:44;;;;;;;;;;;19.80;60.10;;;;;;4458920;32;19996;-78
2022/12/26 10:50:20;;;;;;;;;;;19.80;60.10;;;;;;4454263;32;20037;-75
2022/12/26 10:52:46;;;;;;;;;;;19.80;60.10;;;;;;4459696;32;19990;-76
2022/12/26 10:55:16;;;;;;;;;;;19.80;59.90;;;;;;4454313;32;20029;-76
2022/12/26 10:57:43;;;;;;;;;;;19.90;59.90;;;;;;4444273;32;19990;-77
2022/12/26 11:00:20;;;;;;;;;;;19.90;59.60;;;;;;4461149;32;19998;-76
2022/12/26 11:03:00;;;;;;;;;;;20.00;59.50;;;;;;4460128;32;19978;-76
2022/12/26 11:05:26;;;;;;;;;;;20.10;59.20;;;;;;4445867;32;20111;-77
2022/12/26 11:07:54;;;;;;;;;;;20.10;59.00;;;;;;4450556;32;20009;-76
2022/12/26 11:10:21;;;;;;;;;;;20.20;58.80;;;;;;4450606;32;20108;-76
2022/12/26 11:12:49;;;;;;;;;;;20.30;58.60;;;;;;4451021;32;20096;-76
2022/12/26 11:15:17;;;;;;;;;;;20.30;58.50;;;;;;4454284;32;19974;-77
2022/12/26 11:17:45;;;;;;;;;;;20.30;58.30;;;;;;4452028;32;19986;-77
2022/12/26 11:20:14;;;;;;;;;;;20.40;58.20;;;;;;4453309;32;20068;-76
2022/12/26 11:22:43;;;;;;;;;;;20.40;58.10;;;;;;4452766;32;19989;-77
2022/12/26 11:25:09;;;;;;;;;;;20.40;58.00;;;;;;4444043;32;20128;-76
2022/12/26 11:27:36;;;;;;;;;;;20.40;58.00;;;;;;4454048;32;19978;-76
2022/12/26 11:30:15;;;;;;;;;;;20.40;57.90;;;;;;4450889;32;20120;-76
2022/12/26 11:32:47;;;;;;;;;;;20.40;57.90;;;;;;4453363;32;19966;-76
2022/12/26 11:35:26;;;;;;;;;;;20.50;57.90;;;;;;4451904;32;20026;-76
2022/12/26 11:37:56;;;;;;;;;;;20.50;57.90;;;;;;4454916;32;20000;-76
2022/12/26 11:40:33;;;;;;;;;;;20.50;57.90;;;;;;4460311;32;20119;-76
2022/12/26 11:43:01;;;;;;;;;;;20.50;57.90;;;;;;4460328;32;20018;-75
2022/12/26 11:45:29;;;;;;;;;;;20.60;57.90;;;;;;4460927;32;19990;-76
2022/12/26 11:48:00;;;;;;;;;;;20.60;57.90;;;;;;4460769;32;20067;-75
2022/12/26 11:50:27;;;;;;;;;;;20.60;57.80;;;;;;4460821;32;20323;-75
2022/12/26 11:52:56;;;;;;;;;;;20.60;57.70;;;;;;4460738;32;20044;-75
2022/12/26 11:55:25;;;;;;;;;;;20.70;57.70;;;;;;4446532;32;20450;-75
2022/12/26 11:58:00;;;;;;;;;;;20.70;57.60;;;;;;4460490;32;20136;-75
2022/12/26 12:00:27;;;;;;;;;;;20.70;57.60;;;;;;4460550;32;19978;-75
2022/12/26 12:02:53;;;;;;;;;;;20.70;57.60;;;;;;4446036;32;20396;-76
2022/12/26 12:05:25;;;;;;;;;;;20.80;57.70;;;;;;4459136;32;20080;-76
2022/12/26 12:07:53;;;;;;;;;;;20.80;57.60;;;;;;4459496;32;20000;-75
2022/12/26 12:10:19;;;;;;;;;;;20.80;57.70;;;;;;4458885;32;20061;-76
2022/12/26 12:12:57;;;;;;;;;;;20.80;57.70;;;;;;4459498;32;19978;-76
2022/12/26 12:15:43;;;;;;;;;;;20.80;57.70;;;;;;4456490;32;19982;-76
2022/12/26 12:18:18;;;;;;;;;;;20.80;57.80;;;;;;4457705;32;20342;-76
2022/12/26 12:20:55;;;;;;;;;;;20.80;57.80;;;;;;4458665;32;19986;-75
2022/12/26 12:23:30;;;;;;;;;;;20.70;57.80;;;;;;4459253;32;20247;-75
2022/12/26 12:25:56;;;;;;;;;;;20.70;57.80;;;;;;4459159;32;20105;-75
2022/12/26 12:28:37;;;;;;;;;;;20.70;57.80;;;;;;4459127;32;20104;-75
2022/12/26 12:31:02;;;;;;;;;;;20.70;57.90;;;;;;4458139;32;19989;-74
2022/12/26 12:33:38;;;;;;;;;;;20.70;57.90;;;;;;4457805;32;20021;-75
2022/12/26 12:36:04;;;;;;;;;;;20.70;57.90;;;;;;4458323;32;20061;-75
2022/12/26 12:38:50;;;;;;;;;;;20.70;57.90;;;;;;4458904;32;19982;-76
2022/12/26 12:41:49;;;;;;;;;;;20.70;58.00;;;;;;4456621;32;20010;-75
2022/12/26 12:44:21;;;;;;;;;;;20.70;57.90;;;;;;4410661;32;19974;-75
2022/12/26 12:46:47;;;;;;;;;;;20.70;58.00;;;;;;4457419;32;19978;-75
2022/12/26 12:49:13;;;;;;;;;;;20.70;58.10;;;;;;4458677;32;19971;-75
2022/12/26 12:51:58;;;;;;;;;;;20.70;58.10;;;;;;4456469;32;20033;-75
2022/12/26 12:54:50;;;;;;;;;;;20.70;58.10;;;;;;4458326;32;19989;-75
2022/12/26 12:57:30;;;;;;;;;;;20.70;58.10;;;;;;4433230;32;19998;-75
2022/12/26 13:00:11;;;;;;;;;;;20.70;58.10;;;;;;4458215;32;20037;-77
2022/12/26 13:02:56;;;;;;;;;;;20.70;58.10;;;;;;4457718;32;20064;-75
2022/12/26 13:05:34;;;;;;;;;;;20.70;58.10;;;;;;4458429;32;20053;-76
2022/12/26 13:08:05;;;;;;;;;;;20.80;58.20;;;;;;4456849;32;20120;-77
2022/12/26 13:10:32;;;;;;;;;;;20.80;58.10;;;;;;4444327;32;20057;-77
2022/12/26 13:13:03;;;;;;;;;;;20.80;58.10;;;;;;4459351;32;19982;-77
2022/12/26 13:15:34;;;;;;;;;;;20.80;58.10;;;;;;4458265;32;20466;-76
2022/12/26 13:18:00;;;;;;;;;;;20.80;58.10;;;;;;4458430;32;20109;-76
2022/12/26 13:20:30;;;;;;;;;;;20.80;58.10;;;;;;4458901;32;20092;-76
2022/12/26 13:25:52;;;;;;;;;;;20.80;58.10;;;;;;4460559;32;19974;-76
2022/12/26 13:28:22;;;;;;;;;;;20.80;58.00;;;;;;4462213;32;20029;-76
2022/12/26 13:30:52;;;;;;;;;;;20.80;58.00;;;;;;4461369;32;19986;-76
2022/12/26 13:33:18;;;;;;;;;;;20.80;58.10;;;;;;4452947;32;19989;-76
2022/12/26 13:35:46;;;;;;;;;;;20.80;58.10;;;;;;4447478;32;20073;-77
2022/12/26 13:38:12;;;;;;;;;;;20.80;58.10;;;;;;4452960;32;20018;-77
2022/12/26 13:40:44;;;;;;;;;;;20.80;58.10;;;;;;4463052;32;19989;-76
2022/12/26 13:46:26;;;;;;;;;;;20.80;58.00;;;;;;4463279;32;19982;-76
2022/12/26 13:48:56;;;;;;;;;;;20.80;57.80;;;;;;4463086;32;19990;-84
2022/12/26 13:51:43;;;;;;;;;;;20.80;57.80;;;;;;4462534;32;20100;-76
2022/12/26 13:54:10;;;;;;;;;;;20.80;57.80;;;;;;4447542;32;20143;-76
2022/12/26 13:56:38;;;;;;;;;;;20.80;57.80;;;;;;4459817;32;20060;-75
2022/12/26 13:59:06;;;;;;;;;;;20.90;57.90;;;;;;4460953;32;20414;-75
2022/12/26 14:01:51;;;;;;;;;;;20.90;57.90;;;;;;4459584;32;20046;-75
2022/12/26 14:04:41;;;;;;;;;;;20.90;57.80;;;;;;4460094;32;20335;-76
2022/12/26 14:07:19;;;;;;;;;;;20.90;57.80;;;;;;4460469;32;19974;-76
2022/12/26 14:09:48;;;;;;;;;;;21.00;57.80;;;;;;4460512;32;20116;-76
2022/12/26 14:12:23;;;;;;;;;;;21.00;57.90;;;;;;4446427;32;19982;-77
2022/12/26 14:15:00;;;;;;;;;;;21.00;57.90;;;;;;4460486;32;20037;-77
2022/12/26 14:17:28;;;;;;;;;;;21.00;57.90;;;;;;4461342;32;20380;-76
2022/12/26 14:20:37;;;;;;;;;;;21.00;57.90;;;;;;4446584;32;19998;-76
2022/12/26 14:23:03;;;;;;;;;;;21.00;57.90;;;;;;4446151;32;19981;-75
2022/12/26 14:25:44;;;;;;;;;;;21.00;57.90;;;;;;4459269;32;19982;-75
2022/12/26 14:28:20;;;;;;;;;;;21.00;58.00;;;;;;4460828;32;19990;-75
2022/12/26 14:30:49;;;;;;;;;;;21.00;58.00;;;;;;4459000;32;19986;-75
2022/12/26 14:33:27;;;;;;;;;;;21.00;58.10;;;;;;4460345;32;19995;-75
2022/12/26 14:36:08;;;;;;;;;;;21.00;58.20;;;;;;4457855;32;19986;-75
2022/12/26 14:38:35;;;;;;;;;;;21.00;58.20;;;;;;4459251;32;20300;-76
2022/12/26 14:41:05;;;;;;;;;;;21.00;58.30;;;;;;4460635;32;20406;-76
2022/12/26 14:43:38;;;;;;;;;;;21.00;58.30;;;;;;4461133;32;19982;-76
2022/12/26 14:46:27;;;;;;;;;;;21.00;58.40;;;;;;4456957;32;19985;-76
2022/12/26 14:48:54;;;;;;;;;;;20.90;58.30;;;;;;4451857;32;20293;-77
2022/12/26 14:51:20;;;;;;;;;;;20.90;58.40;;;;;;4458317;32;20443;-78
2022/12/26 14:54:05;;;;;;;;;;;20.90;58.40;;;;;;4459623;32;20104;-76
2022/12/26 14:56:36;;;;;;;;;;;20.90;58.50;;;;;;4458588;32;20002;-76
2022/12/26 14:59:20;;;;;;;;;;;20.90;58.60;;;;;;4459487;32;19970;-76
2022/12/26 15:01:47;;;;;;;;;;;20.90;58.60;;;;;;4458525;32;19986;-75
2022/12/26 15:04:13;;;;;;;;;;;20.90;58.60;;;;;;4458902;32;19974;-76
2022/12/26 15:06:54;;;;;;;;;;;20.90;58.70;;;;;;4457497;32;20384;-75
2022/12/26 15:09:32;;;;;;;;;;;20.90;58.70;;;;;;4459310;32;20367;-77
2022/12/26 15:12:18;;;;;;;;;;;20.90;58.70;;;;;;4458740;32;20089;-76
2022/12/26 15:14:46;;;;;;;;;;;20.90;58.80;;;;;;4459719;32;20017;-76
2022/12/26 15:17:36;;;;;;;;;;;20.90;58.80;;;;;;4460129;32;19981;-76
2022/12/26 15:20:28;;;;;;;;;;;20.90;58.80;;;;;;4457563;32;19990;-75
2022/12/26 15:23:32;;;;;;;;;;;20.80;58.90;;;;;;4452821;32;19992;-76
2022/12/26 15:25:58;;;;;;;;;;;20.90;58.90;;;;;;4426694;32;19974;-77
2022/12/26 15:28:38;;;;;;;;;;;20.80;58.90;;;;;;4426430;32;20175;-76
2022/12/26 15:31:23;;;;;;;;;;;20.90;59.00;;;;;;4445937;32;19986;-77
2022/12/26 15:33:49;;;;;;;;;;;20.80;58.90;;;;;;4444072;32;20061;-77
2022/12/26 15:36:24;;;;;;;;;;;20.80;58.90;;;;;;4459056;32;20384;-77
2022/12/26 15:39:09;;;;;;;;;;;20.80;59.00;;;;;;4444140;32;20008;-77
2022/12/26 15:41:35;;;;;;;;;;;20.80;59.00;;;;;;4457937;32;19974;-78
2022/12/26 15:44:15;;;;;;;;;;;20.80;59.00;;;;;;4459862;32;20055;-78
2022/12/26 15:46:42;;;;;;;;;;;20.80;59.10;;;;;;4457302;32;19982;-76
2022/12/26 15:49:33;;;;;;;;;;;20.80;59.00;;;;;;4442464;32;29999;-76
2022/12/26 15:51:59;;;;;;;;;;;20.80;59.00;;;;;;4457485;32;19982;-76
2022/12/26 15:54:30;;;;;;;;;;;20.80;59.10;;;;;;4458696;32;20305;-76
2022/12/26 15:57:08;;;;;;;;;;;20.80;59.10;;;;;;4457224;32;20324;-77
2022/12/26 16:00:12;;;;;;;;;;;20.80;59.10;;;;;;4459260;32;20053;-77
2022/12/26 16:02:45;;;;;;;;;;;20.80;59.10;;;;;;4396628;32;20453;-77
2022/12/26 16:05:11;;;;;;;;;;;20.80;59.10;;;;;;4396907;32;20436;-77
2022/12/26 16:07:49;;;;;;;;;;;20.80;59.00;;;;;;4429258;32;19974;-77
2022/12/26 16:10:24;;;;;;;;;;;20.80;59.00;;;;;;4451708;32;19998;-77
2022/12/26 16:13:05;;;;;;;;;;;20.80;59.00;;;;;;4449797;32;20105;-78
2022/12/26 16:15:31;;;;;;;;;;;20.80;58.90;;;;;;4455642;32;19993;-78
2022/12/26 16:18:36;;;;;;;;;;;20.80;58.90;;;;;;4455804;32;19985;-74
2022/12/26 16:23:48;;;;;;;;;;;20.80;58.80;;;;;;4427134;32;19991;-78
2022/12/26 16:26:21;;;;;;;;;;;20.80;58.80;;;;;;4440249;32;20067;-78
2022/12/26 16:28:47;;;;;;;;;;;20.80;58.90;;;;;;4452066;32;19994;-77
2022/12/26 16:31:20;;;;;;;;;;;20.80;59.00;;;;;;4453871;32;20052;-77
2022/12/26 16:33:46;;;;;;;;;;;20.80;59.00;;;;;;4453525;32;19988;-76
2022/12/26 16:36:17;;;;;;;;;;;20.80;59.00;;;;;;4453066;32;19993;-77
2022/12/26 16:38:42;;;;;;;;;;;20.80;59.00;;;;;;4457593;32;19994;-76
2022/12/26 16:41:20;;;;;;;;;;;20.80;59.00;;;;;;4460529;32;20025;-76
2022/12/26 16:43:46;;;;;;;;;;;20.80;59.00;;;;;;4460067;32;20044;-77
2022/12/26 16:46:13;;;;;;;;;;;20.80;59.00;;;;;;4458752;32;19981;-76
2022/12/26 16:48:39;;;;;;;;;;;20.80;59.10;;;;;;4459143;32;20156;-76
2022/12/26 16:51:07;;;;;;;;;;;20.80;59.10;;;;;;4457308;32;19997;-76
2022/12/26 16:53:35;;;;;;;;;;;20.80;59.20;;;;;;4459569;32;20039;-76
2022/12/26 16:56:16;;;;;;;;;;;20.80;59.20;;;;;;4458419;32;19993;-76